Pride Of Rotterdam — PBAJ — position and weather

sailwx.info

Track history (hours):
 
Tides and Currents Weather Stations Pressure Air Temp Water Temp Dewpoint Dewpoint Depression Visibility Wind Speed Wind Dir Waves Ship Positions

Pride Of Rotterdam

Operator: P&O Ferries

Last reported at 2020-Jan-25 03:31 UTC. Time now 2020-Jan-25 05:52 UTC.
Position N 53°17' E 001°04'.

Length 214 m; draft 5.9 m.

Type: Ship. MMSI: 244980000.

Date/timePositionNaut miles runAvg speedWind from/ knotsBaromVisibWave heightAir tempDewpointWater temp
2020-Jan-25 03:31N 53°17' E 001°04'4518.0
2020-Jan-25 01:01N 52°47' E 001°59'917.6
2020-Jan-25 00:30N 52°42' E 002°11'2416.3
2020-Jan-24 23:01N 52°27' E 002°43'4016.2
2020-Jan-24 20:30N 52°06' E 003°39'816.9
2020-Jan-24 20:00N 52°02' E 003°52'918.1
2020-Jan-24 19:31N 51°59' E 004°05'3 0.7
2020-Jan-24 16:00N 51°57' E 004°08'0 0.0
2020-Jan-24 14:59N 51°57' E 004°08'0 0.0
2020-Jan-24 13:59N 51°57' E 004°08'0 0.0
2020-Jan-24 11:58N 51°57' E 004°08'0 0.0
2020-Jan-24 10:58N 51°57' E 004°08'0 0.0
2020-Jan-24 10:30N 51°57' E 004°08'0 0.0
2020-Jan-24 10:00N 51°57' E 004°08'0 0.0
2020-Jan-24 07:30N 51°57' E 004°08'2 3.6
2020-Jan-24 07:00N 51°58' E 004°07'6418.2
2020-Jan-24 03:30N 52°31' E 002°38'1919.0
2020-Jan-24 02:30N 52°44' E 002°14'3819.0
2020-Jan-24 00:30N 53°07' E 001°25'1918.6
2020-Jan-23 23:30N 53°20' E 001°01'2718.2
2020-Jan-23 22:00N 53°33' E 000°21'25 4.6
2020-Jan-23 16:28N 53°44' W 000°17'0 0.0
2020-Jan-23 15:28N 53°44' W 000°17'0 0.0
2020-Jan-23 14:00N 53°44' W 000°17'0 0.0
2020-Jan-23 12:30N 53°44' W 000°17'0 0.0
2020-Jan-23 10:59N 53°44' W 000°17'0 0.0
2020-Jan-23 09:58N 53°44' W 000°17'7 1.8
2020-Jan-23 06:01N 53°38' W 000°09'815.1
2020-Jan-23 05:30N 53°35' E 000°02'17817.0
2020-Jan-22 19:00N 51°57' E 004°08'0 0.0
2020-Jan-22 14:58N 51°57' E 004°08'0 0.0
2020-Jan-22 13:01N 51°57' E 004°08'0 0.0
2020-Jan-22 11:00N 51°57' E 004°08'0 0.0
2020-Jan-22 08:59N 51°57' E 004°08'0 0.0
2020-Jan-22 08:29N 51°57' E 004°08'6314.1
2020-Jan-22 04:00N 52°30' E 002°41'1019.2
2020-Jan-22 03:31N 52°37' E 002°30'6819.6
2020-Jan-22 00:01N 53°19' E 001°00'5214.7
2020-Jan-21 20:28N 53°44' W 000°17'0 0.0
2020-Jan-21 12:58N 53°44' W 000°17'0 0.0
2020-Jan-21 11:30N 53°44' W 000°17'0 0.0
2020-Jan-21 10:24N 53°44' W 000°17'0 0.0
2020-Jan-21 07:30N 53°44' W 000°17'2 3.3
2020-Jan-21 07:00N 53°43' W 000°15'4514.9
2020-Jan-21 04:00N 53°22' E 000°52'917.4
2020-Jan-21 03:31N 53°18' E 001°04'917.3
2020-Jan-21 03:01N 53°13' E 001°16'2717.8
2020-Jan-21 01:31N 52°58' E 001°52'918.9
2020-Jan-21 01:01N 52°52' E 002°05'7518.7
2020-Jan-20 21:00N 52°06' E 003°42'18 7.3
2020-Jan-20 18:28N 51°57' E 004°08'0 0.0
2020-Jan-20 16:58N 51°57' E 004°08'0 0.0
2020-Jan-20 15:00N 51°57' E 004°08'0 0.0
2020-Jan-20 13:29N 51°57' E 004°08'0 0.0
2020-Jan-20 11:58N 51°57' E 004°08'0 0.0
2020-Jan-20 10:58N 51°57' E 004°08'0 0.1
2020-Jan-20 09:30N 51°57' E 004°08'0 0.0
2020-Jan-20 09:00N 51°57' E 004°08'0 0.0
2020-Jan-20 06:59N 51°57' E 004°08'0 0.0
2020-Jan-20 05:59N 51°57' E 004°08'0 0.0
2020-Jan-20 05:29N 51°57' E 004°08'0 0.0
2020-Jan-20 04:58N 51°57' E 004°08'0 0.0
2020-Jan-20 03:28N 51°57' E 004°08'0 0.0
2020-Jan-20 02:30N 51°57' E 004°08'0 0.0
2020-Jan-20 01:30N 51°57' E 004°08'0 0.0
2020-Jan-20 01:00N 51°57' E 004°08'0 0.0
2020-Jan-19 23:26N 51°57' E 004°08'0 0.0
2020-Jan-19 20:58N 51°57' E 004°08'0 0.0
2020-Jan-19 19:00N 51°57' E 004°08'0 0.0
2020-Jan-19 18:30N 51°57' E 004°08'0 0.0
2020-Jan-19 16:29N 51°57' E 004°08'0 0.1
2020-Jan-19 13:00N 51°57' E 004°08'7 3.6
2020-Jan-19 10:58N 51°53' E 004°18'0 0.0
2020-Jan-19 10:28N 51°53' E 004°18'0 0.0
2020-Jan-19 09:58N 51°53' E 004°18'0 0.0
2020-Jan-19 08:30N 51°53' E 004°18'0 0.0
2020-Jan-19 06:29N 51°53' E 004°18'0 0.0
2020-Jan-19 04:28N 51°53' E 004°18'0 0.0
2020-Jan-19 03:28N 51°53' E 004°18'0 0.0
2020-Jan-19 00:59N 51°53' E 004°18'0 0.0
2020-Jan-19 00:29N 51°53' E 004°18'0 0.0
2020-Jan-18 21:58N 51°53' E 004°18'0 0.0
2020-Jan-18 21:28N 51°53' E 004°18'0 0.0
2020-Jan-18 20:28N 51°53' E 004°18'0 0.0
2020-Jan-18 19:30N 51°53' E 004°18'0 0.0
2020-Jan-18 17:59N 51°53' E 004°18'0 0.0
2020-Jan-18 17:29N 51°53' E 004°18'0 0.0
2020-Jan-18 16:29N 51°53' E 004°18'0 0.0
2020-Jan-18 15:28N 51°53' E 004°18'0 0.0
2020-Jan-18 14:58N 51°53' E 004°18'0 0.0
2020-Jan-18 13:31N 51°53' E 004°18'0 0.0
2020-Jan-18 10:29N 51°53' E 004°18'0 0.0
2020-Jan-18 09:59N 51°53' E 004°18'0 0.0
2020-Jan-18 06:30N 51°53' E 004°18'0 0.0
2020-Jan-18 04:00N 51°53' E 004°18'0 0.0
2020-Jan-18 01:59N 51°53' E 004°18'0 0.0
2020-Jan-18 00:58N 51°53' E 004°18'0 0.0
2020-Jan-17 23:58N 51°53' E 004°18'0 0.0
2020-Jan-17 19:59N 51°53' E 004°18'0 0.0
2020-Jan-17 18:28N 51°53' E 004°18'0 0.0
2020-Jan-17 17:28N 51°53' E 004°18'0 0.0
2020-Jan-17 16:28N 51°53' E 004°18'0 0.0
2020-Jan-17 15:00N 51°53' E 004°18'0 0.0
2020-Jan-17 11:28N 51°53' E 004°18'0 0.0
2020-Jan-17 08:30N 51°53' E 004°18'0 0.0
2020-Jan-17 06:59N 51°53' E 004°18'0 0.0
2020-Jan-17 04:59N 51°53' E 004°18'0 0.0
2020-Jan-17 04:28N 51°53' E 004°18'0 0.0
2020-Jan-17 03:59N 51°53' E 004°18'0 0.0
2020-Jan-17 02:28N 51°53' E 004°18'0 0.0
2020-Jan-17 00:30N 51°53' E 004°18'0 0.0
2020-Jan-16 17:30N 51°53' E 004°18'0 0.0
2020-Jan-16 17:00N 51°53' E 004°18'0 0.0
2020-Jan-16 13:59N 51°53' E 004°18'0 0.0
2020-Jan-16 12:58N 51°53' E 004°18'0 0.0
2020-Jan-16 12:28N 51°53' E 004°18'0 0.0
2020-Jan-16 11:58N 51°53' E 004°18'0 0.0
2020-Jan-16 11:00N 51°53' E 004°18'0 0.0
2020-Jan-16 09:30N 51°53' E 004°18'0 0.0
2020-Jan-16 08:29N 51°53' E 004°18'0 0.0
2020-Jan-16 04:30N 51°53' E 004°18'0 0.0
2020-Jan-16 03:57N 51°53' E 004°18'0 0.0
2020-Jan-16 03:00N 51°53' E 004°18'0 0.0
2020-Jan-16 02:30N 51°53' E 004°18'0 0.0
2020-Jan-16 01:29N 51°53' E 004°18'0 0.0
2020-Jan-15 23:28N 51°53' E 004°18'0 0.0
2020-Jan-15 22:28N 51°53' E 004°18'0 0.0
2020-Jan-15 20:00N 51°53' E 004°18'0 0.0
2020-Jan-15 19:30N 51°53' E 004°18'0 0.0
2020-Jan-15 17:59N 51°53' E 004°18'0 0.0
2020-Jan-15 14:00N 51°53' E 004°18'0 0.2
2020-Jan-15 12:30N 51°53' E 004°18'0 0.0
2020-Jan-15 11:30N 51°53' E 004°18'0 0.0
2020-Jan-15 09:30N 51°53' E 004°18'0 0.0
2020-Jan-15 08:30N 51°53' E 004°18'0 0.0
2020-Jan-15 05:00N 51°53' E 004°18'  
Track history (hours):
 
Tides and Currents Weather Stations Pressure Air Temp Water Temp Dewpoint Dewpoint Depression Visibility Wind Speed Wind Dir Waves Ship Positions

Pride Of Rotterdam

Operator: P&O Ferries

Last reported at 2020-Jan-25 03:31 UTC. Time now 2020-Jan-25 05:52 UTC.
Position N 53°17' E 001°04'.

Length 214 m; draft 5.9 m.

Type: Ship. MMSI: 244980000.

Date/timePositionNaut miles runAvg speedWind from/ knotsBaromVisibWave heightAir tempDewpointWater temp
2020-Jan-25 03:31N 53°17' E 001°04'4518.0
2020-Jan-25 01:01N 52°47' E 001°59'917.6
2020-Jan-25 00:30N 52°42' E 002°11'2416.3
2020-Jan-24 23:01N 52°27' E 002°43'4016.2
2020-Jan-24 20:30N 52°06' E 003°39'816.9
2020-Jan-24 20:00N 52°02' E 003°52'918.1
2020-Jan-24 19:31N 51°59' E 004°05'3 0.7
2020-Jan-24 16:00N 51°57' E 004°08'0 0.0
2020-Jan-24 14:59N 51°57' E 004°08'0 0.0
2020-Jan-24 13:59N 51°57' E 004°08'0 0.0
2020-Jan-24 11:58N 51°57' E 004°08'0 0.0
2020-Jan-24 10:58N 51°57' E 004°08'0 0.0
2020-Jan-24 10:30N 51°57' E 004°08'0 0.0
2020-Jan-24 10:00N 51°57' E 004°08'0 0.0
2020-Jan-24 07:30N 51°57' E 004°08'2 3.6
2020-Jan-24 07:00N 51°58' E 004°07'6418.2
2020-Jan-24 03:30N 52°31' E 002°38'1919.0
2020-Jan-24 02:30N 52°44' E 002°14'3819.0
2020-Jan-24 00:30N 53°07' E 001°25'1918.6
2020-Jan-23 23:30N 53°20' E 001°01'2718.2
2020-Jan-23 22:00N 53°33' E 000°21'25 4.6
2020-Jan-23 16:28N 53°44' W 000°17'0 0.0
2020-Jan-23 15:28N 53°44' W 000°17'0 0.0
2020-Jan-23 14:00N 53°44' W 000°17'0 0.0
2020-Jan-23 12:30N 53°44' W 000°17'0 0.0
2020-Jan-23 10:59N 53°44' W 000°17'0 0.0
2020-Jan-23 09:58N 53°44' W 000°17'7 1.8
2020-Jan-23 06:01N 53°38' W 000°09'815.1
2020-Jan-23 05:30N 53°35' E 000°02'17817.0
2020-Jan-22 19:00N 51°57' E 004°08'0 0.0
2020-Jan-22 14:58N 51°57' E 004°08'0 0.0
2020-Jan-22 13:01N 51°57' E 004°08'0 0.0
2020-Jan-22 11:00N 51°57' E 004°08'0 0.0
2020-Jan-22 08:59N 51°57' E 004°08'0 0.0
2020-Jan-22 08:29N 51°57' E 004°08'6314.1
2020-Jan-22 04:00N 52°30' E 002°41'1019.2
2020-Jan-22 03:31N 52°37' E 002°30'6819.6
2020-Jan-22 00:01N 53°19' E 001°00'5214.7
2020-Jan-21 20:28N 53°44' W 000°17'0 0.0
2020-Jan-21 12:58N 53°44' W 000°17'0 0.0
2020-Jan-21 11:30N 53°44' W 000°17'0 0.0
2020-Jan-21 10:24N 53°44' W 000°17'0 0.0
2020-Jan-21 07:30N 53°44' W 000°17'2 3.3
2020-Jan-21 07:00N 53°43' W 000°15'4514.9
2020-Jan-21 04:00N 53°22' E 000°52'917.4
2020-Jan-21 03:31N 53°18' E 001°04'917.3
2020-Jan-21 03:01N 53°13' E 001°16'2717.8
2020-Jan-21 01:31N 52°58' E 001°52'918.9
2020-Jan-21 01:01N 52°52' E 002°05'7518.7
2020-Jan-20 21:00N 52°06' E 003°42'18 7.3
2020-Jan-20 18:28N 51°57' E 004°08'0 0.0
2020-Jan-20 16:58N 51°57' E 004°08'0 0.0
2020-Jan-20 15:00N 51°57' E 004°08'0 0.0
2020-Jan-20 13:29N 51°57' E 004°08'0 0.0
2020-Jan-20 11:58N 51°57' E 004°08'0 0.0
2020-Jan-20 10:58N 51°57' E 004°08'0 0.1
2020-Jan-20 09:30N 51°57' E 004°08'0 0.0
2020-Jan-20 09:00N 51°57' E 004°08'0 0.0
2020-Jan-20 06:59N 51°57' E 004°08'0 0.0
2020-Jan-20 05:59N 51°57' E 004°08'0 0.0
2020-Jan-20 05:29N 51°57' E 004°08'0 0.0
2020-Jan-20 04:58N 51°57' E 004°08'0 0.0
2020-Jan-20 03:28N 51°57' E 004°08'0 0.0
2020-Jan-20 02:30N 51°57' E 004°08'0 0.0
2020-Jan-20 01:30N 51°57' E 004°08'0 0.0
2020-Jan-20 01:00N 51°57' E 004°08'0 0.0
2020-Jan-19 23:26N 51°57' E 004°08'0 0.0
2020-Jan-19 20:58N 51°57' E 004°08'0 0.0
2020-Jan-19 19:00N 51°57' E 004°08'0 0.0
2020-Jan-19 18:30N 51°57' E 004°08'0 0.0
2020-Jan-19 16:29N 51°57' E 004°08'0 0.1
2020-Jan-19 13:00N 51°57' E 004°08'7 3.6
2020-Jan-19 10:58N 51°53' E 004°18'0 0.0
2020-Jan-19 10:28N 51°53' E 004°18'0 0.0
2020-Jan-19 09:58N 51°53' E 004°18'0 0.0
2020-Jan-19 08:30N 51°53' E 004°18'0 0.0
2020-Jan-19 06:29N 51°53' E 004°18'0 0.0
2020-Jan-19 04:28N 51°53' E 004°18'0 0.0
2020-Jan-19 03:28N 51°53' E 004°18'0 0.0
2020-Jan-19 00:59N 51°53' E 004°18'0 0.0
2020-Jan-19 00:29N 51°53' E 004°18'0 0.0
2020-Jan-18 21:58N 51°53' E 004°18'0 0.0
2020-Jan-18 21:28N 51°53' E 004°18'0 0.0
2020-Jan-18 20:28N 51°53' E 004°18'0 0.0
2020-Jan-18 19:30N 51°53' E 004°18'0 0.0
2020-Jan-18 17:59N 51°53' E 004°18'0 0.0
2020-Jan-18 17:29N 51°53' E 004°18'0 0.0
2020-Jan-18 16:29N 51°53' E 004°18'0 0.0
2020-Jan-18 15:28N 51°53' E 004°18'0 0.0
2020-Jan-18 14:58N 51°53' E 004°18'0 0.0
2020-Jan-18 13:31N 51°53' E 004°18'0 0.0
2020-Jan-18 10:29N 51°53' E 004°18'0 0.0
2020-Jan-18 09:59N 51°53' E 004°18'0 0.0
2020-Jan-18 06:30N 51°53' E 004°18'0 0.0
2020-Jan-18 04:00N 51°53' E 004°18'0 0.0
2020-Jan-18 01:59N 51°53' E 004°18'0 0.0
2020-Jan-18 00:58N 51°53' E 004°18'0 0.0
2020-Jan-17 23:58N 51°53' E 004°18'0 0.0
2020-Jan-17 19:59N 51°53' E 004°18'0 0.0
2020-Jan-17 18:28N 51°53' E 004°18'0 0.0
2020-Jan-17 17:28N 51°53' E 004°18'0 0.0
2020-Jan-17 16:28N 51°53' E 004°18'0 0.0
2020-Jan-17 15:00N 51°53' E 004°18'0 0.0
2020-Jan-17 11:28N 51°53' E 004°18'0 0.0
2020-Jan-17 08:30N 51°53' E 004°18'0 0.0
2020-Jan-17 06:59N 51°53' E 004°18'0 0.0
2020-Jan-17 04:59N 51°53' E 004°18'0 0.0
2020-Jan-17 04:28N 51°53' E 004°18'0 0.0
2020-Jan-17 03:59N 51°53' E 004°18'0 0.0
2020-Jan-17 02:28N 51°53' E 004°18'0 0.0
2020-Jan-17 00:30N 51°53' E 004°18'0 0.0
2020-Jan-16 17:30N 51°53' E 004°18'0 0.0
2020-Jan-16 17:00N 51°53' E 004°18'0 0.0
2020-Jan-16 13:59N 51°53' E 004°18'0 0.0
2020-Jan-16 12:58N 51°53' E 004°18'0 0.0
2020-Jan-16 12:28N 51°53' E 004°18'0 0.0
2020-Jan-16 11:58N 51°53' E 004°18'0 0.0
2020-Jan-16 11:00N 51°53' E 004°18'0 0.0
2020-Jan-16 09:30N 51°53' E 004°18'0 0.0
2020-Jan-16 08:29N 51°53' E 004°18'0 0.0
2020-Jan-16 04:30N 51°53' E 004°18'0 0.0
2020-Jan-16 03:57N 51°53' E 004°18'0 0.0
2020-Jan-16 03:00N 51°53' E 004°18'0 0.0
2020-Jan-16 02:30N 51°53' E 004°18'0 0.0
2020-Jan-16 01:29N 51°53' E 004°18'0 0.0
2020-Jan-15 23:28N 51°53' E 004°18'0 0.0
2020-Jan-15 22:28N 51°53' E 004°18'0 0.0
2020-Jan-15 20:00N 51°53' E 004°18'0 0.0
2020-Jan-15 19:30N 51°53' E 004°18'0 0.0
2020-Jan-15 17:59N 51°53' E 004°18'0 0.0
2020-Jan-15 14:00N 51°53' E 004°18'0 0.2
2020-Jan-15 12:30N 51°53' E 004°18'0 0.0
2020-Jan-15 11:30N 51°53' E 004°18'0 0.0
2020-Jan-15 09:30N 51°53' E 004°18'0 0.0
2020-Jan-15 08:30N 51°53' E 004°18'0 0.0
2020-Jan-15 05:00N 51°53' E 004°18'  

Dump ship's entire track history